createdAt,value
2016-07-11T00:00:01.391Z,26.2
2016-07-11T00:01:00.786Z,26.2
2016-07-11T00:02:00.181Z,26.21
2016-07-11T00:03:01.412Z,26.2
2016-07-11T00:04:00.808Z,26.2
2016-07-11T00:05:00.813Z,26.15
2016-07-11T00:06:00.826Z,26.17
2016-07-11T00:07:01.809Z,26.21
2016-07-11T00:08:00.835Z,26.18
2016-07-11T00:09:00.229Z,26.17
2016-07-11T00:10:01.461Z,26.25
2016-07-11T00:11:00.855Z,26.18
2016-07-11T00:12:01.479Z,26.2
2016-07-11T00:13:01.483Z,26.25
2016-07-11T00:14:01.490Z,26.26
2016-07-11T00:15:00.886Z,26.13
2016-07-11T00:16:01.507Z,26.18
2016-07-11T00:17:00.903Z,26.23
2016-07-11T00:18:02.161Z,26.25
2016-07-11T00:19:01.531Z,26.21
2016-07-11T00:20:00.921Z,26.21
2016-07-11T00:21:00.932Z,26.23
2016-07-11T00:22:00.935Z,26.2
2016-07-11T00:23:00.989Z,26.15
2016-07-11T00:24:00.340Z,26.25
2016-07-11T00:25:01.620Z,26.25
2016-07-11T00:26:01.576Z,26.15
2016-07-11T00:27:00.974Z,26.21
2016-07-11T00:28:00.982Z,26.17
2016-07-11T00:29:00.378Z,26.18
2016-07-11T00:30:01.605Z,26.23
2016-07-11T00:31:01.616Z,26.17
2016-07-11T00:32:01.617Z,26.21
2016-07-11T00:33:01.628Z,26.12
2016-07-11T00:34:01.022Z,26.2
2016-07-11T00:35:01.639Z,26.25
2016-07-11T00:36:01.647Z,26.21
2016-07-11T00:37:01.655Z,26.17
2016-07-11T00:38:00.439Z,26.17
2016-07-11T00:39:01.057Z,26.25
2016-07-11T00:40:01.767Z,26.17
2016-07-11T00:41:01.068Z,26.13
2016-07-11T00:42:01.079Z,26.15
2016-07-11T00:43:01.092Z,26.21
2016-07-11T00:44:01.704Z,26.17
2016-07-11T00:45:01.101Z,26.13
2016-07-11T00:46:01.106Z,26.2
2016-07-11T00:47:01.742Z,26.13
2016-07-11T00:48:01.736Z,26.09
2016-07-11T00:49:00.517Z,26.13
2016-07-11T00:50:01.137Z,26.26
2016-07-11T00:51:01.296Z,26.23
2016-07-11T00:52:00.537Z,26.23
2016-07-11T00:53:01.160Z,26.13
2016-07-11T00:54:01.164Z,26.23
2016-07-11T00:55:01.171Z,26.18
2016-07-11T00:56:01.180Z,26.17
2016-07-11T00:57:01.802Z,26.18
2016-07-11T00:58:01.193Z,26.1
2016-07-11T00:59:01.200Z,26.15
2016-07-11T01:00:01.208Z,26.17
2016-07-11T01:01:01.218Z,26.13
2016-07-11T01:02:01.933Z,26.1
2016-07-11T01:03:00.614Z,26.18
2016-07-11T01:04:01.237Z,26.13
2016-07-11T01:05:01.250Z,26.09
2016-07-11T01:06:01.248Z,26.2
2016-07-11T01:07:01.260Z,26.09
2016-07-11T01:08:01.877Z,26.15
2016-07-11T01:09:01.272Z,26.1
2016-07-11T01:10:01.278Z,26.1
2016-07-11T01:11:01.283Z,26.2
2016-07-11T01:12:01.300Z,26.13
2016-07-11T01:13:01.910Z,26.12
2016-07-11T01:14:01.920Z,26.13
2016-07-11T01:15:02.206Z,26.12
2016-07-11T01:16:01.321Z,26.21
2016-07-11T01:17:01.938Z,26.15
2016-07-11T01:18:01.335Z,26.1
2016-07-11T01:19:01.342Z,26.12
2016-07-11T01:20:01.352Z,26.21
2016-07-11T01:21:01.358Z,26.12
2016-07-11T01:22:01.373Z,26.09
2016-07-11T01:23:01.373Z,26.09
2016-07-11T01:24:02.139Z,26.12
2016-07-11T01:25:02.046Z,26.13
2016-07-11T01:26:02.604Z,26.1
2016-07-11T01:27:01.399Z,26.17
2016-07-11T01:28:01.708Z,26.13
2016-07-11T01:29:01.412Z,26.12
2016-07-11T01:30:01.425Z,26.12
2016-07-11T01:31:02.041Z,26.06
2016-07-11T01:32:02.050Z,26.13
2016-07-11T01:33:02.055Z,26.13
2016-07-11T01:34:01.451Z,26.07
2016-07-11T01:35:01.456Z,26.09
2016-07-11T01:36:02.074Z,26.15
2016-07-11T01:37:02.120Z,26.17
2016-07-11T01:38:02.089Z,26.1
2016-07-11T01:39:01.482Z,26.07
2016-07-11T01:40:02.101Z,26.13
2016-07-11T01:41:02.108Z,26.15
2016-07-11T01:42:01.521Z,26.09
2016-07-11T01:43:01.513Z,26.13
2016-07-11T01:44:01.520Z,26.07
2016-07-11T01:45:02.140Z,25.99
2016-07-11T01:46:01.532Z,26.07
2016-07-11T01:47:02.154Z,26.1
2016-07-11T01:48:02.186Z,26.01
2016-07-11T01:49:02.161Z,26.1
2016-07-11T01:50:00.951Z,26.1
2016-07-11T01:51:02.182Z,26.06
2016-07-11T01:52:01.578Z,25.98
2016-07-11T01:53:01.586Z,25.98
2016-07-11T01:54:02.201Z,26.06
2016-07-11T01:55:02.205Z,26.07
2016-07-11T01:56:01.605Z,26.12
2016-07-11T01:57:01.009Z,26.12
2016-07-11T01:58:02.229Z,26.1
2016-07-11T01:59:01.712Z,26.07
2016-07-11T02:00:02.243Z,26.07
2016-07-11T02:01:01.638Z,26.12
2016-07-11T02:02:01.645Z,26.09
2016-07-11T02:03:02.275Z,26.07
2016-07-11T02:04:01.660Z,26.07
2016-07-11T02:05:02.278Z,26.1
2016-07-11T02:06:01.675Z,26.06
2016-07-11T02:07:01.075Z,26.09
2016-07-11T02:08:01.684Z,26.12
2016-07-11T02:09:01.086Z,26.09
2016-07-11T02:10:01.251Z,26.12
2016-07-11T02:11:02.319Z,26.09
2016-07-11T02:12:03.299Z,26.07
2016-07-11T02:13:01.723Z,26.07
2016-07-11T02:14:01.779Z,26.13
2016-07-11T02:15:01.124Z,26.12
2016-07-11T02:16:01.749Z,26.12
2016-07-11T02:17:02.361Z,26.1
2016-07-11T02:18:02.372Z,26.01
2016-07-11T02:19:01.762Z,26.1
2016-07-11T02:20:01.768Z,26.1
2016-07-11T02:21:02.391Z,26.09
2016-07-11T02:22:01.171Z,26.05
2016-07-11T02:23:03.254Z,26.02
2016-07-11T02:24:01.849Z,26.12
2016-07-11T02:25:01.798Z,26.07
2016-07-11T02:26:01.809Z,26.07
2016-07-11T02:27:01.207Z,26.1
2016-07-11T02:28:01.220Z,26.06
2016-07-11T02:29:02.443Z,26.13
2016-07-11T02:30:01.841Z,26.07
2016-07-11T02:31:01.849Z,26.1
2016-07-11T02:32:02.466Z,26.07
2016-07-11T02:33:01.873Z,26.13
2016-07-11T02:34:03.437Z,26.09
2016-07-11T02:35:01.878Z,26.06
2016-07-11T02:36:02.505Z,26.06
2016-07-11T02:37:01.887Z,26.1
2016-07-11T02:38:02.520Z,26.07
2016-07-11T02:39:01.903Z,26.09
2016-07-11T02:40:01.911Z,26.09
2016-07-11T02:41:02.535Z,26.1
2016-07-11T02:42:01.311Z,26.13
2016-07-11T02:43:01.323Z,26.07
2016-07-11T02:44:01.941Z,26.05
2016-07-11T02:45:02.397Z,26.1
2016-07-11T02:46:02.566Z,26.17
2016-07-11T02:47:01.957Z,26.13
2016-07-11T02:48:02.581Z,26.07
2016-07-11T02:49:02.923Z,26.06
2016-07-11T02:50:02.597Z,26.07
2016-07-11T02:51:01.990Z,26.1
2016-07-11T02:52:01.995Z,26.12
2016-07-11T02:53:01.392Z,26.1
2016-07-11T02:54:02.010Z,26.07
2016-07-11T02:55:02.629Z,25.99
2016-07-11T02:56:02.673Z,26.09
2016-07-11T02:57:02.029Z,26.13
2016-07-11T02:58:02.649Z,26.13
2016-07-11T02:59:02.044Z,26.06
2016-07-11T03:00:03.150Z,26.02
2016-07-11T03:01:01.449Z,26.07
2016-07-11T03:02:01.456Z,26.01
2016-07-11T03:03:01.462Z,26.09
2016-07-11T03:04:02.081Z,25.98
2016-07-11T03:05:02.087Z,25.98
2016-07-11T03:06:02.096Z,26.05
2016-07-11T03:07:02.713Z,26.09
2016-07-11T03:08:02.110Z,26.09
2016-07-11T03:09:02.120Z,26.15
2016-07-11T03:10:02.123Z,26.09
2016-07-11T03:11:02.631Z,26.07
2016-07-11T03:12:02.135Z,26.06
2016-07-11T03:13:02.146Z,26.06
2016-07-11T03:14:02.151Z,26.1
2016-07-11T03:15:02.155Z,26.12
2016-07-11T03:16:02.164Z,26.09
2016-07-11T03:17:02.795Z,26.01
2016-07-11T03:18:02.795Z,26.06
2016-07-11T03:19:02.186Z,26.1
2016-07-11T03:20:03.618Z,25.97
2016-07-11T03:21:02.818Z,26.12
2016-07-11T03:22:02.822Z,26.01
2016-07-11T03:23:02.216Z,26.01
2016-07-11T03:24:02.223Z,26.01
2016-07-11T03:25:02.279Z,25.98
2016-07-11T03:26:02.244Z,26.02
2016-07-11T03:27:02.245Z,25.99
2016-07-11T03:28:02.302Z,25.98
2016-07-11T03:29:01.694Z,26.01
2016-07-11T03:30:02.263Z,25.95
2016-07-11T03:31:03.174Z,25.99
2016-07-11T03:32:02.892Z,25.99
2016-07-11T03:33:02.384Z,25.98
2016-07-11T03:34:02.907Z,25.98
2016-07-11T03:35:02.302Z,25.99
2016-07-11T03:36:02.307Z,25.98
2016-07-11T03:37:02.931Z,25.99
2016-07-11T03:38:02.936Z,25.95
2016-07-11T03:39:02.939Z,25.98
2016-07-11T03:40:02.946Z,26.01
2016-07-11T03:41:02.953Z,25.99
2016-07-11T03:42:03.353Z,25.97
2016-07-11T03:43:02.969Z,25.98
2016-07-11T03:44:02.977Z,26.05
2016-07-11T03:45:02.373Z,25.98
2016-07-11T03:46:01.775Z,25.99
2016-07-11T03:47:02.381Z,25.99
2016-07-11T03:48:01.779Z,25.98
2016-07-11T03:49:03.015Z,25.97
2016-07-11T03:50:03.020Z,25.92
2016-07-11T03:51:02.413Z,26.02
2016-07-11T03:52:02.418Z,25.88
2016-07-11T03:53:03.039Z,25.97
2016-07-11T03:54:02.434Z,25.97
2016-07-11T03:55:02.438Z,25.98
2016-07-11T03:56:01.837Z,26.01
2016-07-11T03:57:03.557Z,25.99
2016-07-11T03:58:01.849Z,25.92
2016-07-11T03:59:01.859Z,26.05
2016-07-11T04:00:03.088Z,26.02
2016-07-11T04:01:03.098Z,25.99
2016-07-11T04:02:02.487Z,26.06
2016-07-11T04:03:02.499Z,25.97
2016-07-11T04:04:02.506Z,26.05
2016-07-11T04:05:02.514Z,26.02
2016-07-11T04:06:01.903Z,25.88
2016-07-11T04:07:02.530Z,26.05
2016-07-11T04:08:03.086Z,25.99
2016-07-11T04:09:03.150Z,25.97
2016-07-11T04:10:02.547Z,26.05
2016-07-11T04:11:02.558Z,25.87
2016-07-11T04:12:02.563Z,25.99
2016-07-11T04:13:03.181Z,25.97
2016-07-11T04:14:02.577Z,26.05
2016-07-11T04:15:01.968Z,26.01
2016-07-11T04:16:01.977Z,26.07
2016-07-11T04:17:02.598Z,25.95
2016-07-11T04:18:02.606Z,25.98
2016-07-11T04:19:03.775Z,25.97
2016-07-11T04:20:02.617Z,25.98
2016-07-11T04:21:02.627Z,26.02
2016-07-11T04:22:02.631Z,25.94
2016-07-11T04:23:02.639Z,25.99
2016-07-11T04:24:03.480Z,26.01
2016-07-11T04:25:02.651Z,26.05
2016-07-11T04:26:02.095Z,25.94
2016-07-11T04:27:03.283Z,25.99
2016-07-11T04:28:02.671Z,25.99
2016-07-11T04:29:02.681Z,26.02
2016-07-11T04:30:03.036Z,25.99
2016-07-11T04:31:03.304Z,26.01
2016-07-11T04:32:04.289Z,25.99
2016-07-11T04:33:02.709Z,25.98
2016-07-11T04:34:02.102Z,25.94
2016-07-11T04:35:02.109Z,25.87
2016-07-11T04:36:03.341Z,25.9
2016-07-11T04:37:03.348Z,26.06
2016-07-11T04:38:02.743Z,25.82
2016-07-11T04:39:02.751Z,25.97
2016-07-11T04:40:03.368Z,25.98
2016-07-11T04:41:03.779Z,25.97
2016-07-11T04:42:02.163Z,25.9
2016-07-11T04:43:02.167Z,26.01
2016-07-11T04:44:02.787Z,25.99
2016-07-11T04:45:02.180Z,25.85
2016-07-11T04:46:03.417Z,25.92
2016-07-11T04:47:02.201Z,25.94
2016-07-11T04:48:03.433Z,25.99
2016-07-11T04:49:03.435Z,25.9
2016-07-11T04:50:03.442Z,25.92
2016-07-11T04:51:03.448Z,25.97
2016-07-11T04:52:02.744Z,25.95
2016-07-11T04:53:03.461Z,25.92
2016-07-11T04:54:03.982Z,25.98
2016-07-11T04:55:02.861Z,25.9
2016-07-11T04:56:02.869Z,25.88
2016-07-11T04:57:03.487Z,25.99
2016-07-11T04:58:03.500Z,26.05
2016-07-11T04:59:03.501Z,25.98
2016-07-11T05:00:02.902Z,26.01
2016-07-11T05:01:02.907Z,26.01
2016-07-11T05:02:02.298Z,25.99
2016-07-11T05:03:03.117Z,25.98
2016-07-11T05:04:03.545Z,25.97
2016-07-11T05:05:02.936Z,25.98
2016-07-11T05:06:02.940Z,25.98
2016-07-11T05:07:02.946Z,25.99
2016-07-11T05:08:03.567Z,25.98
2016-07-11T05:09:02.962Z,25.98
2016-07-11T05:10:03.581Z,25.99
2016-07-11T05:11:03.584Z,25.99
2016-07-11T05:12:02.983Z,25.97
2016-07-11T05:13:02.992Z,25.95
2016-07-11T05:14:03.610Z,25.97
2016-07-11T05:15:03.614Z,26.1
2016-07-11T05:16:03.910Z,26.06
2016-07-11T05:17:03.019Z,25.98
2016-07-11T05:18:03.264Z,25.98
2016-07-11T05:19:03.033Z,26.09
2016-07-11T05:20:03.652Z,25.97
2016-07-11T05:21:03.662Z,26.06
2016-07-11T05:22:02.442Z,26.15
2016-07-11T05:23:03.676Z,26.13
2016-07-11T05:24:03.070Z,25.98
2016-07-11T05:25:03.690Z,26.09
2016-07-11T05:26:03.084Z,26.1
2016-07-11T05:27:04.331Z,26.13
2016-07-11T05:28:03.101Z,26.12
2016-07-11T05:29:02.792Z,26.12
2016-07-11T05:30:03.163Z,26.1
2016-07-11T05:31:03.730Z,26.13
2016-07-11T05:32:03.737Z,26.07
2016-07-11T05:33:03.744Z,26.07
2016-07-11T05:34:03.141Z,26.13
2016-07-11T05:35:03.149Z,26.1
2016-07-11T05:36:03.769Z,26.12
2016-07-11T05:37:03.167Z,26.1
2016-07-11T05:38:02.557Z,26.02
2016-07-11T05:39:02.570Z,26.09
2016-07-11T05:40:03.247Z,26.07
2016-07-11T05:41:03.194Z,26.1
2016-07-11T05:42:02.590Z,26.02
2016-07-11T05:43:03.818Z,26.07
2016-07-11T05:44:03.213Z,26.09
2016-07-11T05:45:03.833Z,26.07
2016-07-11T05:46:03.231Z,26.06
2016-07-11T05:47:02.626Z,26.09
2016-07-11T05:48:03.241Z,26.15
2016-07-11T05:49:04.817Z,26.07
2016-07-11T05:50:03.871Z,26.13
2016-07-11T05:51:03.414Z,26.12
2016-07-11T05:52:03.884Z,26.09
2016-07-11T05:53:03.893Z,26.1
2016-07-11T05:54:03.901Z,26.06
2016-07-11T05:55:02.682Z,26.13
2016-07-11T05:56:03.302Z,26.1
2016-07-11T05:57:03.308Z,26.1
2016-07-11T05:58:03.315Z,26.1
2016-07-11T05:59:03.325Z,26.12
2016-07-11T06:00:03.781Z,26.12
2016-07-11T06:01:03.341Z,26.13
2016-07-11T06:02:03.346Z,26.15
2016-07-11T06:03:03.963Z,26.2
2016-07-11T06:04:04.474Z,26.2
2016-07-11T06:05:03.996Z,26.13
2016-07-11T06:06:03.985Z,26.17
2016-07-11T06:07:03.996Z,26.17
2016-07-11T06:08:03.401Z,26.12
2016-07-11T06:09:02.783Z,26.13
2016-07-11T06:10:03.405Z,26.12
2016-07-11T06:11:04.064Z,26.15
2016-07-11T06:12:02.806Z,26.13
2016-07-11T06:13:03.424Z,26.12
2016-07-11T06:14:03.434Z,26.06
2016-07-11T06:15:03.991Z,26.06
2016-07-11T06:16:02.838Z,26.1
2016-07-11T06:17:04.066Z,26.09
2016-07-11T06:18:02.851Z,26.12
2016-07-11T06:19:03.470Z,26.13
2016-07-11T06:20:03.480Z,26.09
2016-07-11T06:21:03.489Z,26.09
2016-07-11T06:22:02.883Z,26.09
2016-07-11T06:23:04.124Z,26.09
2016-07-11T06:24:03.508Z,26.09
2016-07-11T06:25:03.510Z,26.09
2016-07-11T06:26:04.057Z,26.15
2016-07-11T06:27:03.537Z,26.09
2016-07-11T06:28:03.535Z,26.1
2016-07-11T06:29:02.931Z,26.07
2016-07-11T06:30:04.215Z,26.18
2016-07-11T06:31:04.216Z,26.07
2016-07-11T06:32:04.175Z,26.13
2016-07-11T06:33:03.575Z,26.13
2016-07-11T06:34:04.191Z,26.07
2016-07-11T06:35:05.071Z,26.06
2016-07-11T06:36:03.596Z,26.1
2016-07-11T06:37:03.488Z,26.13
2016-07-11T06:38:02.996Z,26.09
2016-07-11T06:39:03.004Z,26.15
2016-07-11T06:40:03.622Z,26.09
2016-07-11T06:41:04.242Z,26.1
2016-07-11T06:42:03.636Z,26.13
2016-07-11T06:43:04.255Z,26.07
2016-07-11T06:44:03.041Z,26.09
2016-07-11T06:45:03.661Z,26.15
2016-07-11T06:46:05.128Z,26.01
2016-07-11T06:47:03.062Z,26.02
2016-07-11T06:48:03.731Z,25.98
2016-07-11T06:49:03.687Z,25.98
2016-07-11T06:50:05.208Z,26.06
2016-07-11T06:51:04.313Z,25.99
2016-07-11T06:52:04.321Z,26.1
2016-07-11T06:53:04.330Z,25.97
2016-07-11T06:54:03.721Z,26.12
2016-07-11T06:55:03.122Z,25.98
2016-07-11T06:56:04.554Z,26.12
2016-07-11T06:57:04.260Z,25.97
2016-07-11T06:58:04.366Z,25.95
2016-07-11T06:59:03.758Z,25.98
2016-07-11T07:00:03.152Z,25.98
2016-07-11T07:01:05.543Z,26.06
2016-07-11T07:02:03.170Z,25.94
2016-07-11T07:03:04.400Z,26.05
2016-07-11T07:04:04.407Z,26.07
2016-07-11T07:05:04.414Z,26.02
2016-07-11T07:06:04.438Z,26.05
2016-07-11T07:07:04.438Z,26.02
2016-07-11T07:08:03.219Z,26.05
2016-07-11T07:09:03.221Z,26.01
2016-07-11T07:10:04.653Z,25.98
2016-07-11T07:11:04.462Z,26.01
2016-07-11T07:12:05.506Z,26.02
2016-07-11T07:13:04.474Z,26.12
2016-07-11T07:14:03.870Z,26.1
2016-07-11T07:15:04.490Z,26.07
2016-07-11T07:16:03.883Z,26.02
2016-07-11T07:17:04.505Z,26.05
2016-07-11T07:18:03.905Z,26.1
2016-07-11T07:19:04.516Z,26.05
2016-07-11T07:20:04.523Z,26.06
2016-07-11T07:21:04.585Z,26.15
2016-07-11T07:22:03.928Z,26.1
2016-07-11T07:23:03.931Z,26.07
2016-07-11T07:24:04.554Z,26.09
2016-07-11T07:25:04.766Z,26.09
2016-07-11T07:26:03.339Z,26.09
2016-07-11T07:27:03.964Z,26.09
2016-07-11T07:28:03.967Z,26.07
2016-07-11T07:29:03.983Z,26.12
2016-07-11T07:30:03.988Z,26.09
2016-07-11T07:31:04.039Z,26.09
2016-07-11T07:32:04.201Z,26.13
2016-07-11T07:33:04.057Z,26.21
2016-07-11T07:34:05.563Z,26.47
2016-07-11T07:35:04.636Z,26.69
2016-07-11T07:36:04.646Z,26.76
2016-07-11T07:37:04.653Z,26.72
2016-07-11T07:38:04.046Z,26.69
2016-07-11T07:39:04.671Z,26.51
2016-07-11T07:40:04.676Z,26.5
2016-07-11T07:41:03.457Z,26.4
2016-07-11T07:42:04.089Z,26.45
2016-07-11T07:43:04.339Z,26.44
2016-07-11T07:44:04.096Z,26.33
2016-07-11T07:45:05.061Z,26.33
2016-07-11T07:46:04.114Z,26.35
2016-07-11T07:47:04.305Z,26.35
2016-07-11T07:48:04.130Z,26.29
2016-07-11T07:49:04.134Z,26.25
2016-07-11T07:50:04.753Z,26.28
2016-07-11T07:51:03.542Z,26.26
2016-07-11T07:52:04.772Z,26.29
2016-07-11T07:53:04.785Z,26.3
2016-07-11T07:54:04.175Z,26.25
2016-07-11T07:55:04.186Z,26.3
2016-07-11T07:56:05.393Z,26.4
2016-07-11T07:57:04.201Z,26.37
2016-07-11T07:58:03.847Z,26.36
2016-07-11T07:59:04.218Z,26.3
2016-07-11T08:00:04.226Z,26.35
2016-07-11T08:01:03.617Z,26.32
2016-07-11T08:02:03.627Z,26.36
2016-07-11T08:03:04.245Z,26.36
2016-07-11T08:04:04.248Z,26.44
2016-07-11T08:05:04.262Z,26.39
2016-07-11T08:06:04.879Z,26.37
2016-07-11T08:07:04.884Z,26.37
2016-07-11T08:08:04.292Z,26.36
2016-07-11T08:09:04.129Z,26.44
2016-07-11T08:10:04.301Z,26.39
2016-07-11T08:11:04.311Z,26.47
2016-07-11T08:12:04.924Z,26.47
2016-07-11T08:13:04.328Z,26.52
2016-07-11T08:14:04.332Z,26.45
2016-07-11T08:15:04.342Z,26.43
2016-07-11T08:16:04.373Z,26.48
2016-07-11T08:17:04.353Z,26.48
2016-07-11T08:18:05.837Z,26.45
2016-07-11T08:19:04.373Z,26.5
2016-07-11T08:20:03.764Z,26.58
2016-07-11T08:21:04.995Z,26.55
2016-07-11T08:22:04.393Z,26.55
2016-07-11T08:23:04.398Z,26.55
2016-07-11T08:24:04.407Z,26.52
2016-07-11T08:25:03.815Z,26.57
2016-07-11T08:26:04.449Z,26.55
2016-07-11T08:27:03.821Z,26.5
2016-07-11T08:28:03.825Z,26.54
2016-07-11T08:29:04.949Z,26.57
2016-07-11T08:30:03.895Z,26.47
2016-07-11T08:31:04.517Z,26.48
2016-07-11T08:32:05.083Z,26.48
2016-07-11T08:33:03.864Z,26.5
2016-07-11T08:34:04.486Z,26.58
2016-07-11T08:35:04.594Z,26.51
2016-07-11T08:36:04.619Z,26.5
2016-07-11T08:37:05.318Z,26.57
2016-07-11T08:38:04.611Z,26.47
2016-07-11T08:39:03.912Z,26.5
2016-07-11T08:40:05.378Z,26.57
2016-07-11T08:41:03.931Z,26.55
2016-07-11T08:42:03.935Z,26.51
2016-07-11T08:43:04.654Z,26.58
2016-07-11T08:44:05.771Z,26.52
2016-07-11T08:45:04.661Z,26.54
2016-07-11T08:46:05.374Z,26.54
2016-07-11T08:47:03.977Z,26.63
2016-07-11T08:48:04.690Z,26.54
2016-07-11T08:49:04.691Z,26.52
2016-07-11T08:50:05.409Z,26.48
2016-07-11T08:51:04.711Z,26.57
2016-07-11T08:52:04.720Z,26.52
2016-07-11T08:53:04.726Z,26.55
2016-07-11T08:54:05.440Z,26.5
2016-07-11T08:55:05.434Z,26.54
2016-07-11T08:56:04.761Z,26.63
2016-07-11T08:57:05.464Z,26.5
2016-07-11T08:58:04.057Z,26.55
2016-07-11T08:59:04.066Z,26.52
2016-07-11T09:00:05.575Z,26.47
2016-07-11T09:01:04.791Z,26.66
2016-07-11T09:02:05.498Z,26.52
2016-07-11T09:03:04.096Z,26.55
2016-07-11T09:04:06.686Z,26.54
2016-07-11T09:05:05.521Z,26.5
2016-07-11T09:06:05.218Z,26.5
2016-07-11T09:07:05.536Z,26.52
2016-07-11T09:08:04.832Z,26.55
2016-07-11T09:09:04.846Z,26.55
2016-07-11T09:10:05.562Z,26.51
2016-07-11T09:11:04.858Z,26.5
2016-07-11T09:12:04.870Z,26.57
2016-07-11T09:13:04.873Z,26.55
2016-07-11T09:14:04.879Z,26.54
2016-07-11T09:15:06.707Z,26.48
2016-07-11T09:16:04.897Z,26.51
2016-07-11T09:17:05.354Z,26.55
2016-07-11T09:18:04.913Z,26.55
2016-07-11T09:19:04.215Z,26.55
2016-07-11T09:20:04.926Z,26.48
2016-07-11T09:21:04.228Z,26.52
2016-07-11T09:22:04.231Z,26.62
2016-07-11T09:23:04.949Z,26.58
2016-07-11T09:24:04.957Z,26.5
2016-07-11T09:25:04.962Z,26.54
2016-07-11T09:26:06.662Z,26.47
2016-07-11T09:27:04.977Z,26.47
2016-07-11T09:28:05.223Z,26.47
2016-07-11T09:29:05.711Z,26.54
2016-07-11T09:30:05.047Z,26.5
2016-07-11T09:31:05.353Z,26.65
2016-07-11T09:32:05.016Z,26.55
2016-07-11T09:33:05.020Z,26.66
2016-07-11T09:34:05.027Z,26.57
2016-07-11T09:35:05.792Z,26.66
2016-07-11T09:36:05.055Z,26.62
2016-07-11T09:37:05.048Z,26.63
2016-07-11T09:38:05.765Z,26.65
2016-07-11T09:39:05.366Z,26.67
2016-07-11T09:40:05.071Z,26.55
2016-07-11T09:41:05.078Z,26.63
2016-07-11T09:42:04.385Z,26.67
2016-07-11T09:43:05.091Z,26.65
2016-07-11T09:44:05.810Z,26.63
2016-07-11T09:45:05.112Z,26.63
2016-07-11T09:46:05.823Z,26.72
2016-07-11T09:47:05.836Z,26.65
2016-07-11T09:48:05.133Z,26.63
2016-07-11T09:49:05.847Z,26.7
2016-07-11T09:50:05.146Z,26.62
2016-07-11T09:51:05.864Z,26.67
2016-07-11T09:52:05.159Z,26.65
2016-07-11T09:53:04.464Z,26.69
2016-07-11T09:54:05.175Z,26.66
2016-07-11T09:55:05.886Z,26.75
2016-07-11T09:56:04.487Z,26.63
2016-07-11T09:57:05.418Z,26.51
2016-07-11T09:58:05.911Z,26.51
2016-07-11T09:59:04.507Z,26.48
2016-07-11T10:00:05.219Z,26.47
2016-07-11T10:01:05.327Z,26.43
2016-07-11T10:02:05.232Z,26.5
2016-07-11T10:03:06.717Z,26.44
2016-07-11T10:04:05.957Z,26.37
2016-07-11T10:05:05.970Z,26.37
2016-07-11T10:06:05.971Z,26.37
2016-07-11T10:07:05.274Z,26.4
2016-07-11T10:08:05.281Z,26.43
2016-07-11T10:09:05.285Z,26.37
2016-07-11T10:10:05.997Z,26.48
2016-07-11T10:11:06.008Z,26.5
2016-07-11T10:12:05.331Z,26.51
2016-07-11T10:13:05.314Z,26.52
2016-07-11T10:14:06.424Z,26.5
2016-07-11T10:15:04.623Z,26.44
2016-07-11T10:16:05.630Z,26.43
2016-07-11T10:17:04.641Z,26.47
2016-07-11T10:18:06.058Z,26.45
2016-07-11T10:19:04.650Z,26.45
2016-07-11T10:20:04.659Z,26.48
2016-07-11T10:21:05.374Z,26.5
2016-07-11T10:22:06.082Z,26.55
2016-07-11T10:23:04.787Z,26.45
2016-07-11T10:24:05.395Z,26.45
2016-07-11T10:25:06.824Z,26.47
2016-07-11T10:26:05.408Z,26.48
2016-07-11T10:27:06.120Z,26.47
2016-07-11T10:28:05.426Z,26.43
2016-07-11T10:29:05.432Z,26.44
2016-07-11T10:30:05.436Z,26.43
2016-07-11T10:31:05.443Z,26.45
2016-07-11T10:32:06.156Z,26.48
2016-07-11T10:33:06.164Z,26.4
2016-07-11T10:34:05.463Z,26.44
2016-07-11T10:35:05.518Z,26.37
2016-07-11T10:36:04.772Z,26.36
2016-07-11T10:37:06.191Z,26.35
2016-07-11T10:38:05.489Z,26.39
2016-07-11T10:39:04.792Z,26.33
2016-07-11T10:40:06.222Z,26.43
2016-07-11T10:41:05.506Z,26.43
2016-07-11T10:42:06.226Z,26.39
2016-07-11T10:43:06.235Z,26.5
2016-07-11T10:44:04.825Z,26.43
2016-07-11T10:45:05.562Z,26.36
2016-07-11T10:46:05.544Z,26.39
2016-07-11T10:47:08.731Z,26.39
2016-07-11T10:48:05.560Z,26.37
2016-07-11T10:49:05.211Z,26.33
2016-07-11T10:50:06.281Z,26.39
2016-07-11T10:51:04.868Z,26.39
2016-07-11T10:52:05.589Z,26.44
2016-07-11T10:53:06.305Z,26.44
2016-07-11T10:54:06.309Z,26.39
2016-07-11T10:55:06.311Z,26.36
2016-07-11T10:56:05.611Z,26.32
2016-07-11T10:57:05.618Z,26.32
2016-07-11T10:58:06.886Z,26.35
2016-07-11T10:59:06.566Z,26.4
2016-07-11T11:00:05.640Z,26.51
2016-07-11T11:01:04.941Z,26.45
2016-07-11T11:02:06.601Z,26.47
2016-07-11T11:03:06.365Z,26.44
2016-07-11T11:04:05.671Z,26.43
2016-07-11T11:05:06.384Z,26.39
2016-07-11T11:06:05.680Z,26.36
2016-07-11T11:07:05.687Z,26.36
2016-07-11T11:08:06.401Z,26.35
2016-07-11T11:09:07.107Z,26.3
2016-07-11T11:10:05.007Z,26.37
2016-07-11T11:11:06.423Z,26.37
2016-07-11T11:12:05.720Z,26.4
2016-07-11T11:13:06.328Z,26.36
2016-07-11T11:14:06.444Z,26.43
2016-07-11T11:15:05.971Z,26.43
2016-07-11T11:16:06.454Z,26.39
2016-07-11T11:17:06.462Z,26.39
2016-07-11T11:18:05.761Z,26.44
2016-07-11T11:19:05.772Z,26.4
2016-07-11T11:20:05.775Z,26.47
2016-07-11T11:21:05.782Z,26.48
2016-07-11T11:22:07.211Z,26.4
2016-07-11T11:23:05.795Z,26.48
2016-07-11T11:24:06.899Z,26.5
2016-07-11T11:25:06.516Z,26.48
2016-07-11T11:26:06.526Z,26.51
2016-07-11T11:27:05.143Z,26.45
2016-07-11T11:28:06.541Z,26.5
2016-07-11T11:29:05.136Z,26.47
2016-07-11T11:30:05.845Z,26.47
2016-07-11T11:31:05.857Z,26.48
2016-07-11T11:32:06.567Z,26.39
2016-07-11T11:33:07.840Z,26.43
2016-07-11T11:34:05.876Z,26.4
2016-07-11T11:35:06.230Z,26.44
2016-07-11T11:36:05.390Z,26.45
2016-07-11T11:37:05.897Z,26.43
2016-07-11T11:38:05.196Z,26.45
2016-07-11T11:39:05.906Z,26.44
2016-07-11T11:40:05.948Z,26.4
2016-07-11T11:41:06.633Z,26.4
2016-07-11T11:42:05.932Z,26.44
2016-07-11T11:43:05.945Z,26.48
2016-07-11T11:44:07.612Z,26.48
2016-07-11T11:45:06.658Z,26.5
2016-07-11T11:46:06.856Z,26.47
2016-07-11T11:47:05.965Z,26.52
2016-07-11T11:48:05.973Z,26.54
2016-07-11T11:49:06.027Z,26.51
2016-07-11T11:50:06.690Z,26.48
2016-07-11T11:51:06.235Z,26.5
2016-07-11T11:52:06.487Z,26.51
2016-07-11T11:53:06.004Z,26.45
2016-07-11T11:54:07.747Z,26.45
2016-07-11T11:55:05.314Z,26.47
2016-07-11T11:56:05.533Z,26.4
2016-07-11T11:57:07.915Z,26.36
2016-07-11T11:58:06.123Z,26.48
2016-07-11T11:59:21.483Z,26.43
2016-07-11T12:00:07.508Z,26.47
2016-07-11T12:01:06.610Z,26.45
2016-07-11T12:02:06.897Z,26.51
2016-07-11T12:03:06.852Z,26.48
2016-07-11T12:04:06.004Z,26.45
2016-07-11T12:05:06.336Z,26.54
2016-07-11T12:06:06.937Z,26.52
2016-07-11T12:07:06.679Z,26.58
2016-07-11T12:08:06.673Z,26.45
2016-07-11T12:09:06.302Z,26.48
2016-07-11T12:10:08.020Z,26.51
2016-07-11T12:11:07.120Z,26.43
2016-07-11T12:12:06.367Z,26.45
2016-07-11T12:13:05.701Z,26.44
2016-07-11T12:14:06.870Z,26.55
2016-07-11T12:15:06.874Z,26.47
2016-07-11T12:16:05.469Z,26.51
2016-07-11T12:17:06.887Z,26.45
2016-07-11T12:18:06.432Z,26.54
2016-07-11T12:19:06.439Z,26.54
2016-07-11T12:20:06.211Z,26.47
2016-07-11T12:21:05.603Z,26.51
2016-07-11T12:22:06.927Z,26.51
2016-07-11T12:23:05.544Z,26.48
2016-07-11T12:24:07.004Z,26.4
2016-07-11T12:25:06.341Z,26.58
2016-07-11T12:26:06.245Z,26.54
2016-07-11T12:27:06.959Z,26.48
2016-07-11T12:28:06.262Z,26.44
2016-07-11T12:29:06.268Z,26.51
2016-07-11T12:30:07.318Z,26.52
2016-07-11T12:31:06.283Z,26.39
2016-07-11T12:32:07.995Z,26.48
2016-07-11T12:33:06.345Z,26.47
2016-07-11T12:34:06.311Z,26.51
2016-07-11T12:35:07.019Z,26.52
2016-07-11T12:36:05.610Z,26.5
2016-07-11T12:37:05.733Z,26.48
2016-07-11T12:38:06.331Z,26.57
2016-07-11T12:39:06.345Z,26.55
2016-07-11T12:40:07.055Z,26.48
2016-07-11T12:41:06.356Z,26.47
2016-07-11T12:42:07.070Z,26.48
2016-07-11T12:43:08.084Z,26.51
2016-07-11T12:44:05.669Z,26.51
2016-07-11T12:45:06.533Z,26.45
2016-07-11T12:46:07.100Z,26.45
2016-07-11T12:47:05.691Z,26.51
2016-07-11T12:48:07.473Z,26.48
2016-07-11T12:49:07.124Z,26.52
2016-07-11T12:50:06.427Z,26.51
2016-07-11T12:51:05.722Z,26.44
2016-07-11T12:52:07.292Z,26.51
2016-07-11T12:53:07.150Z,26.47
2016-07-11T12:54:07.966Z,26.51
2016-07-11T12:55:05.749Z,26.45